Lagoa de Velhos, Brazil
Current Conditions -  °F | °C
As of 8:00 AM on Thursday 23 Oct 2014 (Local Time) from SBNT Reporting Station
Broken Clouds Broken Clouds  
Wind Chill: 82°   Ceiling: 2300
Heat Index: 85°   Visibility: 6mi
Dew Point: 68°   Wind: 18mph
Humidity: 62%   Direction: 120°ESE
Pressure: 30"   Gusts: NA
Location:  6°S, 35.87°W
Report Text: SBNT 231100Z 12016KT 9999 BKN023 28/20 Q1016
Loading
Personal Weather Stations






























Interactive Weather Map
Tropical Storm Tracking
New forecast layout! Learn more

10-Day Weather Forecast

Advertisements
Track Severe Weather on mobile